Aeroporto :
LOGIN :

Iscrizione | Disclaimer

   EN    FR    IT 

 










Sommario :    VFR   VFR Marginale   IFR   IFR Intensivo   IFR Molto Intensivo
Visibilità : 
Base nubi : 
>= 8 km
>= 3000ft
5 / 8 km
1000 / 3000 ft
1500m / 5 km
500 / 1000 ft
800 / 1500m
200 / 500 ft
< 800m
< 200 ft
Simboli :   Temporali  Nebbia  Neve Forte  Precipitazioni Forti  Vento > 20 kt
SIGMETs :   Varie  Temporali  Ghiacco  Turbolenza  Onda orograficha  Ceneri Vulcaniche






- Altitudine del aeroporto : 741 ft
- Codice IATA : PED


LKPD - Pardubice AB

ULTIMO METAR :
  • 090700Z 09007KT 1000 R27/P2000N +SN BKN006 OVC017 M00/M01 Q1004 NOSIG RMK AMB AMB

METARs OBSOLETI :
  • 090630Z 09006KT 1000 R27/P2000N +SN BKN007 OVC017 M00/M00 Q1004 NOSIG RMK AMB AMB
  • 090613Z 10006KT 1000 R27/P2000N +SN BKN005 OVC017 M00/M00 Q1004 RMK AMB
  • 090600Z 09006KT 2500 SN SCT003 OVC018 M00/M00 Q1004 NOSIG RMK YLO YLO
  • 090530Z 09005KT 3000 -SN SCT012 OVC018 M00/M01 Q1004 NOSIG RMK YLO YLO
  • 090500Z 08004KT 3000 SN SCT012 OVC066 00/M01 Q1004 NOSIG RMK YLO YLO
  • 090430Z 07004KT 7000 -SN SCT020 OVC025 00/M01 Q1004 NOSIG RMK WHT WHT

TAF TAF LKPD
Valido dal 09 a 06 ore il 10 a 06 ore UTC


090500Z 0906/1006 10006KT 6000 SN SCT010 OVC020
TEMPO 0906/0912 3000 SN BR OVC007
PROB30
TEMPO 0906/0911 0600 SN OVC002
TEMPO 0912/0918 8000 NSW
BECMG 0918/0920 25006KT 3000 SN BR OVC007



MetMap, La meteo Aeronautica in un colpo d'occhio ! - Copyright ORBIFLY Dicembre 2007 - Disclaimer

ORBIFLY MET'MAP TEAM :

Programmazione e sviluppo : Alexandra Zaïnal
Concezione : Baudouin d'Aumeries
Aiuto per la programmazione : Marc-Olivier Méhu
Supporto tecnico e logistico : Manuel Goepfert
Aiuto per la traduzione : Arnaldo La Scala

Contatto : metmap@orbifly.com




FONTI E CREDITI :

   NOAA